sensor_id;sensor_type;location;lat;lon;timestamp;temperature;humidity
34776;DHT22;20989;52.566;13.346;2022-11-15T00:01:16;20.00;67.20
34776;DHT22;20989;52.566;13.346;2022-11-15T00:04:17;19.90;67.20
34776;DHT22;20989;52.566;13.346;2022-11-15T00:07:18;20.00;67.30
34776;DHT22;20989;52.566;13.346;2022-11-15T00:10:18;19.90;67.20
34776;DHT22;20989;52.566;13.346;2022-11-15T00:13:19;19.90;67.30
34776;DHT22;20989;52.566;13.346;2022-11-15T00:16:20;20.00;67.30
34776;DHT22;20989;52.566;13.346;2022-11-15T00:19:20;20.00;67.30
34776;DHT22;20989;52.566;13.346;2022-11-15T00:22:22;19.90;67.80
34776;DHT22;20989;52.566;13.346;2022-11-15T00:25:23;19.90;67.20
34776;DHT22;20989;52.566;13.346;2022-11-15T00:28:24;19.90;67.20
34776;DHT22;20989;52.566;13.346;2022-11-15T00:31:24;19.90;67.20
34776;DHT22;20989;52.566;13.346;2022-11-15T00:34:25;19.90;67.20
34776;DHT22;20989;52.566;13.346;2022-11-15T00:37:26;19.90;67.20
34776;DHT22;20989;52.566;13.346;2022-11-15T00:40:26;19.90;67.20
34776;DHT22;20989;52.566;13.346;2022-11-15T00:43:27;19.90;67.30
34776;DHT22;20989;52.566;13.346;2022-11-15T00:46:27;19.90;67.20
34776;DHT22;20989;52.566;13.346;2022-11-15T00:49:28;19.90;67.20
34776;DHT22;20989;52.566;13.346;2022-11-15T00:52:29;19.90;67.20
34776;DHT22;20989;52.566;13.346;2022-11-15T00:55:29;19.90;67.20
34776;DHT22;20989;52.566;13.346;2022-11-15T00:58:30;19.90;67.20
34776;DHT22;20989;52.566;13.346;2022-11-15T01:01:31;19.90;67.30
34776;DHT22;20989;52.566;13.346;2022-11-15T01:04:31;19.90;67.10
34776;DHT22;20989;52.566;13.346;2022-11-15T01:07:32;19.90;67.10
34776;DHT22;20989;52.566;13.346;2022-11-15T01:10:33;19.90;67.20
34776;DHT22;20989;52.566;13.346;2022-11-15T01:13:35;19.90;67.20
34776;DHT22;20989;52.566;13.346;2022-11-15T01:16:36;19.80;67.10
34776;DHT22;20989;52.566;13.346;2022-11-15T01:19:36;19.90;67.10
34776;DHT22;20989;52.566;13.346;2022-11-15T01:22:37;19.90;67.10
34776;DHT22;20989;52.566;13.346;2022-11-15T01:25:38;19.80;67.10
34776;DHT22;20989;52.566;13.346;2022-11-15T01:28:40;19.80;67.00
34776;DHT22;20989;52.566;13.346;2022-11-15T01:31:41;19.90;67.00
34776;DHT22;20989;52.566;13.346;2022-11-15T01:34:42;19.80;67.00
34776;DHT22;20989;52.566;13.346;2022-11-15T01:37:42;19.80;66.90
34776;DHT22;20989;52.566;13.346;2022-11-15T01:40:43;19.80;67.00
34776;DHT22;20989;52.566;13.346;2022-11-15T01:43:44;19.80;66.90
34776;DHT22;20989;52.566;13.346;2022-11-15T01:46:47;19.80;66.80
34776;DHT22;20989;52.566;13.346;2022-11-15T01:50:04;19.80;67.20
34776;DHT22;20989;52.566;13.346;2022-11-15T01:53:05;19.80;67.00
34776;DHT22;20989;52.566;13.346;2022-11-15T01:56:09;19.80;67.20
34776;DHT22;20989;52.566;13.346;2022-11-15T01:59:10;19.80;66.90
34776;DHT22;20989;52.566;13.346;2022-11-15T02:02:12;19.80;67.00
34776;DHT22;20989;52.566;13.346;2022-11-15T02:05:14;19.80;67.00
34776;DHT22;20989;52.566;13.346;2022-11-15T02:08:15;19.80;66.90
34776;DHT22;20989;52.566;13.346;2022-11-15T02:11:20;19.80;66.90
34776;DHT22;20989;52.566;13.346;2022-11-15T02:14:21;19.80;67.00
34776;DHT22;20989;52.566;13.346;2022-11-15T02:17:47;19.80;66.90
34776;DHT22;20989;52.566;13.346;2022-11-15T02:20:54;19.80;67.00
34776;DHT22;20989;52.566;13.346;2022-11-15T02:31:18;19.80;66.90
34776;DHT22;20989;52.566;13.346;2022-11-15T02:38:21;19.80;66.90
34776;DHT22;20989;52.566;13.346;2022-11-15T02:41:20;19.80;66.90
34776;DHT22;20989;52.566;13.346;2022-11-15T02:44:32;19.80;66.90
34776;DHT22;20989;52.566;13.346;2022-11-15T02:47:41;19.70;66.90
34776;DHT22;20989;52.566;13.346;2022-11-15T02:50:44;19.80;67.00
34776;DHT22;20989;52.566;13.346;2022-11-15T02:53:45;19.80;66.90
34776;DHT22;20989;52.566;13.346;2022-11-15T02:56:47;19.70;67.00
34776;DHT22;20989;52.566;13.346;2022-11-15T03:06:48;19.70;67.00
34776;DHT22;20989;52.566;13.346;2022-11-15T03:10:11;19.70;67.00
34776;DHT22;20989;52.566;13.346;2022-11-15T03:13:26;19.70;67.00
34776;DHT22;20989;52.566;13.346;2022-11-15T03:20:10;19.70;67.00
34776;DHT22;20989;52.566;13.346;2022-11-15T03:23:13;19.70;67.00
34776;DHT22;20989;52.566;13.346;2022-11-15T03:26:16;19.70;67.00
34776;DHT22;20989;52.566;13.346;2022-11-15T03:29:24;19.70;67.00
34776;DHT22;20989;52.566;13.346;2022-11-15T03:32:28;19.70;67.00
34776;DHT22;20989;52.566;13.346;2022-11-15T03:35:35;19.70;67.00
34776;DHT22;20989;52.566;13.346;2022-11-15T03:38:38;19.70;66.90
34776;DHT22;20989;52.566;13.346;2022-11-15T03:45:03;19.70;67.30
34776;DHT22;20989;52.566;13.346;2022-11-15T03:48:14;19.70;67.00
34776;DHT22;20989;52.566;13.346;2022-11-15T03:51:16;19.70;66.90
34776;DHT22;20989;52.566;13.346;2022-11-15T03:54:17;19.70;67.00
34776;DHT22;20989;52.566;13.346;2022-11-15T03:57:18;19.70;67.00
34776;DHT22;20989;52.566;13.346;2022-11-15T04:00:19;19.70;67.00
34776;DHT22;20989;52.566;13.346;2022-11-15T04:03:19;19.70;67.00
34776;DHT22;20989;52.566;13.346;2022-11-15T04:06:20;19.70;66.90
34776;DHT22;20989;52.566;13.346;2022-11-15T04:09:21;19.70;67.00
34776;DHT22;20989;52.566;13.346;2022-11-15T04:12:22;19.70;66.90
34776;DHT22;20989;52.566;13.346;2022-11-15T04:15:31;19.70;67.00
34776;DHT22;20989;52.566;13.346;2022-11-15T04:18:31;19.70;67.00
34776;DHT22;20989;52.566;13.346;2022-11-15T04:21:32;19.70;66.90
34776;DHT22;20989;52.566;13.346;2022-11-15T04:24:51;19.70;66.90
34776;DHT22;20989;52.566;13.346;2022-11-15T04:27:52;19.70;66.90
34776;DHT22;20989;52.566;13.346;2022-11-15T04:30:52;19.70;66.80
34776;DHT22;20989;52.566;13.346;2022-11-15T04:33:53;19.60;66.90
34776;DHT22;20989;52.566;13.346;2022-11-15T04:36:54;19.70;66.90
34776;DHT22;20989;52.566;13.346;2022-11-15T04:40:13;19.70;67.00
34776;DHT22;20989;52.566;13.346;2022-11-15T04:43:14;19.70;67.00
34776;DHT22;20989;52.566;13.346;2022-11-15T04:46:14;19.60;66.90
34776;DHT22;20989;52.566;13.346;2022-11-15T04:49:15;19.70;66.90
34776;DHT22;20989;52.566;13.346;2022-11-15T04:52:15;19.70;66.90
34776;DHT22;20989;52.566;13.346;2022-11-15T04:55:16;19.70;66.90
34776;DHT22;20989;52.566;13.346;2022-11-15T04:58:17;19.70;67.00
34776;DHT22;20989;52.566;13.346;2022-11-15T05:01:18;19.60;67.00
34776;DHT22;20989;52.566;13.346;2022-11-15T05:04:19;19.60;66.80
34776;DHT22;20989;52.566;13.346;2022-11-15T05:07:20;19.60;66.90
34776;DHT22;20989;52.566;13.346;2022-11-15T05:10:20;19.60;66.90
34776;DHT22;20989;52.566;13.346;2022-11-15T05:13:21;19.60;66.80
34776;DHT22;20989;52.566;13.346;2022-11-15T05:16:22;19.60;66.80
34776;DHT22;20989;52.566;13.346;2022-11-15T05:19:23;19.60;66.80
34776;DHT22;20989;52.566;13.346;2022-11-15T05:22:24;19.60;66.80
34776;DHT22;20989;52.566;13.346;2022-11-15T05:25:25;19.60;66.80
34776;DHT22;20989;52.566;13.346;2022-11-15T05:28:26;19.60;66.80
34776;DHT22;20989;52.566;13.346;2022-11-15T05:31:27;19.60;66.80
34776;DHT22;20989;52.566;13.346;2022-11-15T05:34:28;19.60;66.70
34776;DHT22;20989;52.566;13.346;2022-11-15T05:37:29;19.60;66.80
34776;DHT22;20989;52.566;13.346;2022-11-15T05:40:30;19.60;66.80
34776;DHT22;20989;52.566;13.346;2022-11-15T05:43:33;19.60;66.80
34776;DHT22;20989;52.566;13.346;2022-11-15T05:46:37;19.60;66.80
34776;DHT22;20989;52.566;13.346;2022-11-15T05:49:41;19.60;66.80
34776;DHT22;20989;52.566;13.346;2022-11-15T05:52:44;19.60;66.70
34776;DHT22;20989;52.566;13.346;2022-11-15T05:55:46;19.60;66.70
34776;DHT22;20989;52.566;13.346;2022-11-15T05:58:47;19.60;66.70
34776;DHT22;20989;52.566;13.346;2022-11-15T06:01:48;19.60;66.70
34776;DHT22;20989;52.566;13.346;2022-11-15T06:04:48;19.60;66.80
34776;DHT22;20989;52.566;13.346;2022-11-15T06:07:49;19.60;66.70
34776;DHT22;20989;52.566;13.346;2022-11-15T06:10:50;19.60;66.70
34776;DHT22;20989;52.566;13.346;2022-11-15T06:13:51;19.60;66.80
34776;DHT22;20989;52.566;13.346;2022-11-15T06:16:51;19.60;66.80
34776;DHT22;20989;52.566;13.346;2022-11-15T06:19:52;19.50;66.80
34776;DHT22;20989;52.566;13.346;2022-11-15T06:23:00;19.50;66.80
34776;DHT22;20989;52.566;13.346;2022-11-15T06:26:03;19.50;66.80
34776;DHT22;20989;52.566;13.346;2022-11-15T06:29:04;19.60;66.90
34776;DHT22;20989;52.566;13.346;2022-11-15T06:32:05;19.60;67.00
34776;DHT22;20989;52.566;13.346;2022-11-15T06:35:06;19.70;66.40
34776;DHT22;20989;52.566;13.346;2022-11-15T06:38:08;19.70;66.20
34776;DHT22;20989;52.566;13.346;2022-11-15T06:41:11;19.70;66.60
34776;DHT22;20989;52.566;13.346;2022-11-15T06:44:12;19.70;66.20
34776;DHT22;20989;52.566;13.346;2022-11-15T06:47:13;19.70;66.20
34776;DHT22;20989;52.566;13.346;2022-11-15T06:50:13;19.70;66.10
34776;DHT22;20989;52.566;13.346;2022-11-15T06:53:14;19.80;66.40
34776;DHT22;20989;52.566;13.346;2022-11-15T06:56:15;19.90;65.90
34776;DHT22;20989;52.566;13.346;2022-11-15T06:59:16;19.90;66.10
34776;DHT22;20989;52.566;13.346;2022-11-15T07:02:16;19.90;65.90
34776;DHT22;20989;52.566;13.346;2022-11-15T07:05:18;20.00;65.80
34776;DHT22;20989;52.566;13.346;2022-11-15T07:08:18;20.00;66.00
34776;DHT22;20989;52.566;13.346;2022-11-15T07:11:19;20.00;65.80
34776;DHT22;20989;52.566;13.346;2022-11-15T07:14:20;20.10;65.80
34776;DHT22;20989;52.566;13.346;2022-11-15T07:17:21;20.10;65.90
34776;DHT22;20989;52.566;13.346;2022-11-15T07:20:21;20.10;65.70
34776;DHT22;20989;52.566;13.346;2022-11-15T07:23:22;20.10;65.70
34776;DHT22;20989;52.566;13.346;2022-11-15T07:26:23;20.10;66.00
34776;DHT22;20989;52.566;13.346;2022-11-15T07:29:23;20.10;65.80
34776;DHT22;20989;52.566;13.346;2022-11-15T07:32:24;20.10;65.90
34776;DHT22;20989;52.566;13.346;2022-11-15T07:35:26;20.20;65.80
34776;DHT22;20989;52.566;13.346;2022-11-15T07:38:27;20.10;65.50
34776;DHT22;20989;52.566;13.346;2022-11-15T07:41:29;20.00;65.70
34776;DHT22;20989;52.566;13.346;2022-11-15T07:44:30;20.00;65.70
34776;DHT22;20989;52.566;13.346;2022-11-15T07:47:30;20.00;65.80
34776;DHT22;20989;52.566;13.346;2022-11-15T07:50:33;20.00;65.80
34776;DHT22;20989;52.566;13.346;2022-11-15T07:53:34;20.00;65.80
34776;DHT22;20989;52.566;13.346;2022-11-15T07:56:35;20.00;65.80
34776;DHT22;20989;52.566;13.346;2022-11-15T07:59:35;20.00;65.70
34776;DHT22;20989;52.566;13.346;2022-11-15T08:02:36;20.00;65.90
34776;DHT22;20989;52.566;13.346;2022-11-15T08:05:38;20.10;65.70
34776;DHT22;20989;52.566;13.346;2022-11-15T08:08:39;20.10;65.70
34776;DHT22;20989;52.566;13.346;2022-11-15T08:11:40;20.00;65.70
34776;DHT22;20989;52.566;13.346;2022-11-15T08:14:41;20.00;65.80
34776;DHT22;20989;52.566;13.346;2022-11-15T08:17:43;20.10;65.90
34776;DHT22;20989;52.566;13.346;2022-11-15T08:20:43;20.20;66.00
34776;DHT22;20989;52.566;13.346;2022-11-15T08:23:44;20.20;65.90
34776;DHT22;20989;52.566;13.346;2022-11-15T08:26:45;20.20;65.60
34776;DHT22;20989;52.566;13.346;2022-11-15T08:29:48;20.30;65.60
34776;DHT22;20989;52.566;13.346;2022-11-15T08:32:50;20.30;65.60
34776;DHT22;20989;52.566;13.346;2022-11-15T08:35:50;20.30;65.70
34776;DHT22;20989;52.566;13.346;2022-11-15T08:38:51;20.30;65.50
34776;DHT22;20989;52.566;13.346;2022-11-15T08:41:52;20.30;65.70
34776;DHT22;20989;52.566;13.346;2022-11-15T08:44:53;20.30;65.80
34776;DHT22;20989;52.566;13.346;2022-11-15T08:47:54;20.30;65.50
34776;DHT22;20989;52.566;13.346;2022-11-15T08:50:56;20.40;65.40
34776;DHT22;20989;52.566;13.346;2022-11-15T08:53:56;20.40;65.30
34776;DHT22;20989;52.566;13.346;2022-11-15T08:56:57;20.50;65.10
34776;DHT22;20989;52.566;13.346;2022-11-15T08:59:58;20.50;65.10
34776;DHT22;20989;52.566;13.346;2022-11-15T09:02:59;20.50;65.20
34776;DHT22;20989;52.566;13.346;2022-11-15T09:06:00;20.50;64.50
34776;DHT22;20989;52.566;13.346;2022-11-15T09:09:02;20.50;64.80
34776;DHT22;20989;52.566;13.346;2022-11-15T09:12:04;20.50;64.70
34776;DHT22;20989;52.566;13.346;2022-11-15T09:15:06;20.50;65.10
34776;DHT22;20989;52.566;13.346;2022-11-15T09:18:06;20.50;65.00
34776;DHT22;20989;52.566;13.346;2022-11-15T09:21:08;20.40;64.90
34776;DHT22;20989;52.566;13.346;2022-11-15T09:24:09;20.40;65.80
34776;DHT22;20989;52.566;13.346;2022-11-15T09:27:09;20.50;65.40
34776;DHT22;20989;52.566;13.346;2022-11-15T09:30:10;20.50;64.90
34776;DHT22;20989;52.566;13.346;2022-11-15T09:33:12;20.40;64.60
34776;DHT22;20989;52.566;13.346;2022-11-15T09:36:13;20.50;64.60
34776;DHT22;20989;52.566;13.346;2022-11-15T09:39:14;20.50;64.90
34776;DHT22;20989;52.566;13.346;2022-11-15T09:43:11;20.40;62.30
34776;DHT22;20989;52.566;13.346;2022-11-15T09:49:00;20.50;61.50
34776;DHT22;20989;52.566;13.346;2022-11-15T09:52:01;20.50;62.50
34776;DHT22;20989;52.566;13.346;2022-11-15T09:55:03;20.50;62.50
34776;DHT22;20989;52.566;13.346;2022-11-15T09:58:23;20.50;62.70
34776;DHT22;20989;52.566;13.346;2022-11-15T10:05:16;20.60;62.60
34776;DHT22;20989;52.566;13.346;2022-11-15T10:08:46;20.70;63.10
34776;DHT22;20989;52.566;13.346;2022-11-15T10:11:49;20.80;63.10
34776;DHT22;20989;52.566;13.346;2022-11-15T10:14:58;20.70;63.10
34776;DHT22;20989;52.566;13.346;2022-11-15T10:18:12;20.80;63.10
34776;DHT22;20989;52.566;13.346;2022-11-15T10:21:20;20.80;63.40
34776;DHT22;20989;52.566;13.346;2022-11-15T10:24:26;20.80;63.40
34776;DHT22;20989;52.566;13.346;2022-11-15T10:27:29;20.90;63.30
34776;DHT22;20989;52.566;13.346;2022-11-15T10:30:36;20.90;63.20
34776;DHT22;20989;52.566;13.346;2022-11-15T10:33:39;20.90;63.30
34776;DHT22;20989;52.566;13.346;2022-11-15T10:36:57;20.90;63.50
34776;DHT22;20989;52.566;13.346;2022-11-15T10:40:06;20.90;63.70
34776;DHT22;20989;52.566;13.346;2022-11-15T10:43:18;21.00;63.90
34776;DHT22;20989;52.566;13.346;2022-11-15T10:46:22;21.00;63.50
34776;DHT22;20989;52.566;13.346;2022-11-15T10:49:25;21.00;63.90
34776;DHT22;20989;52.566;13.346;2022-11-15T10:52:27;20.90;64.00
34776;DHT22;20989;52.566;13.346;2022-11-15T10:55:31;21.00;63.80
34776;DHT22;20989;52.566;13.346;2022-11-15T10:58:39;20.90;64.10
34776;DHT22;20989;52.566;13.346;2022-11-15T11:01:47;21.00;64.20
34776;DHT22;20989;52.566;13.346;2022-11-15T11:04:50;21.00;64.10
34776;DHT22;20989;52.566;13.346;2022-11-15T11:08:04;20.90;64.40
34776;DHT22;20989;52.566;13.346;2022-11-15T11:11:06;21.00;64.60
34776;DHT22;20989;52.566;13.346;2022-11-15T11:14:24;20.80;64.00
34776;DHT22;20989;52.566;13.346;2022-11-15T11:20:51;20.80;64.30
34776;DHT22;20989;52.566;13.346;2022-11-15T11:30:24;20.80;64.50
34776;DHT22;20989;52.566;13.346;2022-11-15T11:33:39;20.90;64.60
34776;DHT22;20989;52.566;13.346;2022-11-15T11:36:49;20.90;64.90
34776;DHT22;20989;52.566;13.346;2022-11-15T11:43:47;20.90;64.60
34776;DHT22;20989;52.566;13.346;2022-11-15T11:50:25;20.90;64.50
34776;DHT22;20989;52.566;13.346;2022-11-15T11:53:27;20.90;64.50
34776;DHT22;20989;52.566;13.346;2022-11-15T11:56:33;20.90;64.60
34776;DHT22;20989;52.566;13.346;2022-11-15T12:02:45;20.90;64.70
34776;DHT22;20989;52.566;13.346;2022-11-15T12:06:32;20.90;64.80
34776;DHT22;20989;52.566;13.346;2022-11-15T12:09:33;20.80;64.70
34776;DHT22;20989;52.566;13.346;2022-11-15T12:12:44;20.70;64.80
34776;DHT22;20989;52.566;13.346;2022-11-15T12:19:04;20.90;65.10
34776;DHT22;20989;52.566;13.346;2022-11-15T12:22:17;20.90;65.20
34776;DHT22;20989;52.566;13.346;2022-11-15T12:28:55;20.90;65.00
34776;DHT22;20989;52.566;13.346;2022-11-15T12:31:58;21.00;65.10
34776;DHT22;20989;52.566;13.346;2022-11-15T12:35:21;21.00;64.90
34776;DHT22;20989;52.566;13.346;2022-11-15T12:39:02;20.90;65.20
34776;DHT22;20989;52.566;13.346;2022-11-15T12:45:33;20.90;65.10
34776;DHT22;20989;52.566;13.346;2022-11-15T12:57:43;20.90;65.00
34776;DHT22;20989;52.566;13.346;2022-11-15T13:00:45;21.00;65.00
34776;DHT22;20989;52.566;13.346;2022-11-15T13:10:39;21.00;65.00
34776;DHT22;20989;52.566;13.346;2022-11-15T13:13:44;20.90;65.20
34776;DHT22;20989;52.566;13.346;2022-11-15T13:16:46;20.90;65.20
34776;DHT22;20989;52.566;13.346;2022-11-15T13:19:53;20.90;65.00
34776;DHT22;20989;52.566;13.346;2022-11-15T13:23:14;21.00;65.00
34776;DHT22;20989;52.566;13.346;2022-11-15T13:26:16;21.00;65.10
34776;DHT22;20989;52.566;13.346;2022-11-15T13:29:18;20.90;65.10
34776;DHT22;20989;52.566;13.346;2022-11-15T13:32:20;20.90;65.20
34776;DHT22;20989;52.566;13.346;2022-11-15T13:35:27;21.00;65.30
34776;DHT22;20989;52.566;13.346;2022-11-15T13:38:31;20.90;64.90
34776;DHT22;20989;52.566;13.346;2022-11-15T13:41:35;21.00;65.00
34776;DHT22;20989;52.566;13.346;2022-11-15T13:44:36;20.90;65.10
34776;DHT22;20989;52.566;13.346;2022-11-15T13:47:37;21.00;65.20
34776;DHT22;20989;52.566;13.346;2022-11-15T13:50:39;20.90;65.20
34776;DHT22;20989;52.566;13.346;2022-11-15T13:53:42;20.90;65.20
34776;DHT22;20989;52.566;13.346;2022-11-15T13:56:56;21.00;65.40
34776;DHT22;20989;52.566;13.346;2022-11-15T14:00:04;21.00;65.60
34776;DHT22;20989;52.566;13.346;2022-11-15T14:03:25;20.90;65.60
34776;DHT22;20989;52.566;13.346;2022-11-15T14:06:28;21.00;65.50
34776;DHT22;20989;52.566;13.346;2022-11-15T14:09:34;21.00;65.60
34776;DHT22;20989;52.566;13.346;2022-11-15T14:12:35;20.90;64.90
34776;DHT22;20989;52.566;13.346;2022-11-15T14:15:38;21.00;64.70
34776;DHT22;20989;52.566;13.346;2022-11-15T14:18:51;20.90;65.10
34776;DHT22;20989;52.566;13.346;2022-11-15T14:25:25;21.00;65.10
34776;DHT22;20989;52.566;13.346;2022-11-15T14:31:27;21.00;65.20
34776;DHT22;20989;52.566;13.346;2022-11-15T14:34:31;21.00;65.10
34776;DHT22;20989;52.566;13.346;2022-11-15T14:37:33;21.00;65.40
34776;DHT22;20989;52.566;13.346;2022-11-15T14:40:35;20.90;65.40
34776;DHT22;20989;52.566;13.346;2022-11-15T14:43:35;20.80;65.50
34776;DHT22;20989;52.566;13.346;2022-11-15T14:46:36;20.80;65.60
34776;DHT22;20989;52.566;13.346;2022-11-15T14:49:37;20.80;65.70
34776;DHT22;20989;52.566;13.346;2022-11-15T14:52:38;20.70;65.70
34776;DHT22;20989;52.566;13.346;2022-11-15T14:55:39;20.70;65.70
34776;DHT22;20989;52.566;13.346;2022-11-15T14:58:39;20.70;65.70
34776;DHT22;20989;52.566;13.346;2022-11-15T15:01:40;20.70;65.70
34776;DHT22;20989;52.566;13.346;2022-11-15T15:04:41;20.70;65.70
34776;DHT22;20989;52.566;13.346;2022-11-15T15:07:42;20.80;66.20
34776;DHT22;20989;52.566;13.346;2022-11-15T15:10:44;20.80;65.70
34776;DHT22;20989;52.566;13.346;2022-11-15T15:13:45;20.90;65.40
34776;DHT22;20989;52.566;13.346;2022-11-15T15:16:46;20.90;65.30
34776;DHT22;20989;52.566;13.346;2022-11-15T15:19:47;21.00;65.30
34776;DHT22;20989;52.566;13.346;2022-11-15T15:22:47;20.90;65.10
34776;DHT22;20989;52.566;13.346;2022-11-15T15:25:48;20.90;65.00
34776;DHT22;20989;52.566;13.346;2022-11-15T15:28:49;21.00;65.20
34776;DHT22;20989;52.566;13.346;2022-11-15T15:31:51;20.90;65.10
34776;DHT22;20989;52.566;13.346;2022-11-15T15:34:52;21.00;65.10
34776;DHT22;20989;52.566;13.346;2022-11-15T15:37:52;21.00;65.20
34776;DHT22;20989;52.566;13.346;2022-11-15T15:40:54;21.00;65.20
34776;DHT22;20989;52.566;13.346;2022-11-15T15:43:55;21.00;65.00
34776;DHT22;20989;52.566;13.346;2022-11-15T15:46:56;21.00;65.10
34776;DHT22;20989;52.566;13.346;2022-11-15T15:49:59;21.00;65.10
34776;DHT22;20989;52.566;13.346;2022-11-15T15:53:03;21.00;66.10
34776;DHT22;20989;52.566;13.346;2022-11-15T15:56:04;21.00;65.40
34776;DHT22;20989;52.566;13.346;2022-11-15T15:59:08;21.00;65.40
34776;DHT22;20989;52.566;13.346;2022-11-15T16:02:11;21.00;66.20
34776;DHT22;20989;52.566;13.346;2022-11-15T16:05:13;21.00;65.10
34776;DHT22;20989;52.566;13.346;2022-11-15T16:08:22;21.00;65.20
34776;DHT22;20989;52.566;13.346;2022-11-15T16:11:23;21.00;65.30
34776;DHT22;20989;52.566;13.346;2022-11-15T16:14:24;21.00;65.30
34776;DHT22;20989;52.566;13.346;2022-11-15T16:17:29;21.10;65.50
34776;DHT22;20989;52.566;13.346;2022-11-15T16:23:50;21.20;65.10
34776;DHT22;20989;52.566;13.346;2022-11-15T16:26:51;21.20;65.00
34776;DHT22;20989;52.566;13.346;2022-11-15T16:29:52;21.30;64.80
34776;DHT22;20989;52.566;13.346;2022-11-15T16:32:53;21.30;65.20
34776;DHT22;20989;52.566;13.346;2022-11-15T16:35:54;21.30;64.80
34776;DHT22;20989;52.566;13.346;2022-11-15T16:38:54;21.20;64.80
34776;DHT22;20989;52.566;13.346;2022-11-15T16:41:59;21.30;65.30
34776;DHT22;20989;52.566;13.346;2022-11-15T16:45:00;21.20;65.00
34776;DHT22;20989;52.566;13.346;2022-11-15T16:48:01;21.20;64.90
34776;DHT22;20989;52.566;13.346;2022-11-15T16:51:02;21.10;65.20
34776;DHT22;20989;52.566;13.346;2022-11-15T16:54:05;21.20;65.10
34776;DHT22;20989;52.566;13.346;2022-11-15T16:57:07;21.30;64.60
34776;DHT22;20989;52.566;13.346;2022-11-15T17:00:10;21.40;63.80
34776;DHT22;20989;52.566;13.346;2022-11-15T17:03:11;21.60;63.30
34776;DHT22;20989;52.566;13.346;2022-11-15T17:06:13;21.70;63.00
34776;DHT22;20989;52.566;13.346;2022-11-15T17:09:18;21.90;63.10
34776;DHT22;20989;52.566;13.346;2022-11-15T17:12:19;21.90;63.00
34776;DHT22;20989;52.566;13.346;2022-11-15T17:15:20;22.00;63.00
34776;DHT22;20989;52.566;13.346;2022-11-15T17:18:20;22.10;62.90
34776;DHT22;20989;52.566;13.346;2022-11-15T17:21:21;22.10;62.90
34776;DHT22;20989;52.566;13.346;2022-11-15T17:24:22;22.20;62.80
34776;DHT22;20989;52.566;13.346;2022-11-15T17:27:23;22.20;62.90
34776;DHT22;20989;52.566;13.346;2022-11-15T17:30:23;22.30;62.80
34776;DHT22;20989;52.566;13.346;2022-11-15T17:33:25;22.30;62.80
34776;DHT22;20989;52.566;13.346;2022-11-15T17:36:25;22.30;62.70
34776;DHT22;20989;52.566;13.346;2022-11-15T17:39:26;22.40;62.80
34776;DHT22;20989;52.566;13.346;2022-11-15T17:42:27;22.40;62.70
34776;DHT22;20989;52.566;13.346;2022-11-15T17:45:27;22.40;62.70
34776;DHT22;20989;52.566;13.346;2022-11-15T17:48:29;22.50;62.70
34776;DHT22;20989;52.566;13.346;2022-11-15T17:51:30;22.50;62.70
34776;DHT22;20989;52.566;13.346;2022-11-15T17:54:30;22.50;62.80
34776;DHT22;20989;52.566;13.346;2022-11-15T17:57:31;22.50;62.70
34776;DHT22;20989;52.566;13.346;2022-11-15T18:00:32;22.50;62.70
34776;DHT22;20989;52.566;13.346;2022-11-15T18:03:37;22.60;62.70
34776;DHT22;20989;52.566;13.346;2022-11-15T18:06:38;22.60;62.60
34776;DHT22;20989;52.566;13.346;2022-11-15T18:09:38;22.60;62.50
34776;DHT22;20989;52.566;13.346;2022-11-15T18:12:43;22.70;62.60
34776;DHT22;20989;52.566;13.346;2022-11-15T18:15:53;22.70;62.60
34776;DHT22;20989;52.566;13.346;2022-11-15T18:18:54;22.70;62.60
34776;DHT22;20989;52.566;13.346;2022-11-15T18:21:55;22.70;62.50
34776;DHT22;20989;52.566;13.346;2022-11-15T18:24:55;22.70;62.50
34776;DHT22;20989;52.566;13.346;2022-11-15T18:27:56;22.70;62.50
34776;DHT22;20989;52.566;13.346;2022-11-15T18:30:58;22.70;62.60
34776;DHT22;20989;52.566;13.346;2022-11-15T18:33:59;22.70;62.70
34776;DHT22;20989;52.566;13.346;2022-11-15T18:37:00;22.60;62.90
34776;DHT22;20989;52.566;13.346;2022-11-15T18:40:03;22.50;62.80
34776;DHT22;20989;52.566;13.346;2022-11-15T18:43:03;22.50;63.00
34776;DHT22;20989;52.566;13.346;2022-11-15T18:46:09;22.40;63.00
34776;DHT22;20989;52.566;13.346;2022-11-15T18:49:12;22.40;63.00
34776;DHT22;20989;52.566;13.346;2022-11-15T18:52:13;22.40;63.20
34776;DHT22;20989;52.566;13.346;2022-11-15T18:55:14;22.30;63.30
34776;DHT22;20989;52.566;13.346;2022-11-15T18:58:14;22.30;63.30
34776;DHT22;20989;52.566;13.346;2022-11-15T19:01:19;22.30;63.50
34776;DHT22;20989;52.566;13.346;2022-11-15T19:04:20;22.20;63.60
34776;DHT22;20989;52.566;13.346;2022-11-15T19:07:21;22.20;63.60
34776;DHT22;20989;52.566;13.346;2022-11-15T19:10:22;22.10;63.60
34776;DHT22;20989;52.566;13.346;2022-11-15T19:13:23;22.10;63.60
34776;DHT22;20989;52.566;13.346;2022-11-15T19:16:25;22.10;63.70
34776;DHT22;20989;52.566;13.346;2022-11-15T19:19:26;22.10;63.70
34776;DHT22;20989;52.566;13.346;2022-11-15T19:22:27;22.10;63.80
34776;DHT22;20989;52.566;13.346;2022-11-15T19:25:28;22.10;63.90
34776;DHT22;20989;52.566;13.346;2022-11-15T19:28:29;22.00;63.90
34776;DHT22;20989;52.566;13.346;2022-11-15T19:31:31;22.00;63.90
34776;DHT22;20989;52.566;13.346;2022-11-15T19:34:31;22.00;64.00
34776;DHT22;20989;52.566;13.346;2022-11-15T19:37:33;22.00;64.00
34776;DHT22;20989;52.566;13.346;2022-11-15T19:40:34;22.00;64.00
34776;DHT22;20989;52.566;13.346;2022-11-15T19:43:35;22.00;64.10
34776;DHT22;20989;52.566;13.346;2022-11-15T19:46:36;22.00;64.10
34776;DHT22;20989;52.566;13.346;2022-11-15T19:49:37;22.00;64.20
34776;DHT22;20989;52.566;13.346;2022-11-15T19:52:38;21.90;64.10
34776;DHT22;20989;52.566;13.346;2022-11-15T19:55:38;21.90;64.10
34776;DHT22;20989;52.566;13.346;2022-11-15T19:58:40;21.90;64.10
34776;DHT22;20989;52.566;13.346;2022-11-15T20:01:40;21.90;64.20
34776;DHT22;20989;52.566;13.346;2022-11-15T20:04:41;21.90;64.20
34776;DHT22;20989;52.566;13.346;2022-11-15T20:07:42;21.80;64.20
34776;DHT22;20989;52.566;13.346;2022-11-15T20:10:43;21.80;64.30
34776;DHT22;20989;52.566;13.346;2022-11-15T20:13:48;21.80;64.30
34776;DHT22;20989;52.566;13.346;2022-11-15T20:16:49;21.80;64.30
34776;DHT22;20989;52.566;13.346;2022-11-15T20:19:50;21.80;64.30
34776;DHT22;20989;52.566;13.346;2022-11-15T20:22:51;21.80;64.30
34776;DHT22;20989;52.566;13.346;2022-11-15T20:25:53;21.70;64.30